Airfield :
LOGIN :

Register | Disclaimer

   EN    FR    IT 

 










Legend :    VFR   Marginal VFR   IFR   Intensive IFR   Very Intensive IFR
Visi :
Ceiling :
>= 8 km
>= 3000ft
5 to 8 km
1000 to 3000 ft
1500m to 5 km
500 to 1000 ft
800 to 1500m
200 to 500 ft
< 800m
< 200 ft
Symbols :   Thunderstorms  Fog  Heavy snow  Heavy precipitations  Wind > 20 kt
SIGMETs :     Misc.  Thunderstorms  Icing  Turbulence  Mountain Waves  Volcanic Ashes






- Airport Elevation : 50 ft
- IATA code : EDO


LTFD - Bal?kesir Körfez

CURRENT METAR :
  • 181150Z 26008KT 9999 FEW035 29/11 Q1012

EXPIRED METARs :
  • 181050Z 26008KT 220V290 9999 FEW035 28/11 Q1012
  • 180950Z 27008KT 9999 FEW035 27/12 Q1012

TAF TAF LTFD
Valid from the 18 at 12:00 until the 18 at 21:00 UTC


181040Z 1812/1821 27008KT CAVOK
BECMG 1812/1814 08018G28KT SCT035 BKN100
TEMPO 1815/1819 -TSRA FEW025CB SCT035



MET'MAP, your aeronautical weather chart ! - Copyright ORBIFLY December 2007 - Disclaimer

ORBIFLY MET'MAP TEAM :

Programming & Development : Alexandra Zaïnal
Original concept : Baudouin d'Aumeries
Technical & hardware support : Manuel Goepfert
Assistance : Marc-Olivier Méhu

Contact : metmap@orbifly.com




SOURCES & CREDITS :

   NOAA